sensor_id;sensor_type;location;lat;lon;timestamp;P1;durP1;ratioP1;P2;durP2;ratioP2
5245;SDS011;54412;51.206;6.888;2023-04-15T00:01:22;4.97;;;2.60;;
5245;SDS011;54412;51.206;6.888;2023-04-15T00:03:50;9.90;;;3.20;;
5245;SDS011;54412;51.206;6.888;2023-04-15T00:06:17;8.57;;;3.27;;
5245;SDS011;54412;51.206;6.888;2023-04-15T00:08:43;8.77;;;3.20;;
5245;SDS011;54412;51.206;6.888;2023-04-15T00:11:10;4.07;;;2.90;;
5245;SDS011;54412;51.206;6.888;2023-04-15T00:13:36;5.77;;;3.60;;
5245;SDS011;54412;51.206;6.888;2023-04-15T00:16:03;5.40;;;3.10;;
5245;SDS011;54412;51.206;6.888;2023-04-15T00:18:32;5.70;;;3.23;;
5245;SDS011;54412;51.206;6.888;2023-04-15T00:20:58;4.73;;;2.60;;
5245;SDS011;54412;51.206;6.888;2023-04-15T00:23:24;4.03;;;3.10;;
5245;SDS011;54412;51.206;6.888;2023-04-15T00:25:52;5.53;;;3.23;;
5245;SDS011;54412;51.206;6.888;2023-04-15T00:28:18;7.63;;;3.67;;
5245;SDS011;54412;51.206;6.888;2023-04-15T00:30:43;5.37;;;2.70;;
5245;SDS011;54412;51.206;6.888;2023-04-15T00:33:10;6.67;;;3.30;;
5245;SDS011;54412;51.206;6.888;2023-04-15T00:35:37;7.33;;;3.33;;
5245;SDS011;54412;51.206;6.888;2023-04-15T00:38:03;9.43;;;3.90;;
5245;SDS011;54412;51.206;6.888;2023-04-15T00:40:31;10.00;;;3.13;;
5245;SDS011;54412;51.206;6.888;2023-04-15T00:42:57;8.07;;;3.60;;
5245;SDS011;54412;51.206;6.888;2023-04-15T00:45:23;4.67;;;2.83;;
5245;SDS011;54412;51.206;6.888;2023-04-15T00:47:49;4.37;;;3.03;;
5245;SDS011;54412;51.206;6.888;2023-04-15T00:50:15;7.83;;;3.30;;
5245;SDS011;54412;51.206;6.888;2023-04-15T00:52:41;4.77;;;3.00;;
5245;SDS011;54412;51.206;6.888;2023-04-15T00:55:07;4.70;;;2.30;;
5245;SDS011;54412;51.206;6.888;2023-04-15T00:57:35;8.47;;;4.20;;
5245;SDS011;54412;51.206;6.888;2023-04-15T01:00:03;5.33;;;2.50;;
5245;SDS011;54412;51.206;6.888;2023-04-15T01:02:31;7.60;;;3.10;;
5245;SDS011;54412;51.206;6.888;2023-04-15T01:04:58;5.77;;;2.73;;
5245;SDS011;54412;51.206;6.888;2023-04-15T01:07:24;6.43;;;3.03;;
5245;SDS011;54412;51.206;6.888;2023-04-15T01:09:50;9.07;;;2.80;;
5245;SDS011;54412;51.206;6.888;2023-04-15T01:12:17;6.00;;;2.87;;
5245;SDS011;54412;51.206;6.888;2023-04-15T01:14:44;5.90;;;2.87;;
5245;SDS011;54412;51.206;6.888;2023-04-15T01:17:10;8.40;;;2.90;;
5245;SDS011;54412;51.206;6.888;2023-04-15T01:19:37;9.60;;;3.40;;
5245;SDS011;54412;51.206;6.888;2023-04-15T01:22:03;8.00;;;3.13;;
5245;SDS011;54412;51.206;6.888;2023-04-15T01:24:29;9.70;;;3.20;;
5245;SDS011;54412;51.206;6.888;2023-04-15T01:26:57;6.93;;;2.80;;
5245;SDS011;54412;51.206;6.888;2023-04-15T01:29:24;6.43;;;3.20;;
5245;SDS011;54412;51.206;6.888;2023-04-15T01:31:50;5.23;;;3.30;;
5245;SDS011;54412;51.206;6.888;2023-04-15T01:34:17;5.30;;;2.80;;
5245;SDS011;54412;51.206;6.888;2023-04-15T01:36:43;5.63;;;2.97;;
5245;SDS011;54412;51.206;6.888;2023-04-15T01:39:09;7.13;;;3.23;;
5245;SDS011;54412;51.206;6.888;2023-04-15T01:41:35;5.70;;;3.10;;
5245;SDS011;54412;51.206;6.888;2023-04-15T01:44:01;4.37;;;2.60;;
5245;SDS011;54412;51.206;6.888;2023-04-15T01:46:26;6.63;;;2.57;;
5245;SDS011;54412;51.206;6.888;2023-04-15T01:48:52;10.03;;;3.30;;
5245;SDS011;54412;51.206;6.888;2023-04-15T01:51:18;7.20;;;3.57;;
5245;SDS011;54412;51.206;6.888;2023-04-15T01:53:44;4.50;;;2.87;;
5245;SDS011;54412;51.206;6.888;2023-04-15T01:56:10;6.97;;;3.20;;
5245;SDS011;54412;51.206;6.888;2023-04-15T01:58:36;7.83;;;3.20;;
5245;SDS011;54412;51.206;6.888;2023-04-15T02:01:02;6.53;;;3.10;;
5245;SDS011;54412;51.206;6.888;2023-04-15T02:03:28;6.87;;;3.23;;
5245;SDS011;54412;51.206;6.888;2023-04-15T02:05:54;4.17;;;3.37;;
5245;SDS011;54412;51.206;6.888;2023-04-15T02:08:19;7.23;;;2.77;;
5245;SDS011;54412;51.206;6.888;2023-04-15T02:10:45;6.90;;;3.03;;
5245;SDS011;54412;51.206;6.888;2023-04-15T02:13:11;4.80;;;2.60;;
5245;SDS011;54412;51.206;6.888;2023-04-15T02:15:37;5.00;;;3.47;;
5245;SDS011;54412;51.206;6.888;2023-04-15T02:18:03;4.30;;;2.77;;
5245;SDS011;54412;51.206;6.888;2023-04-15T02:20:29;7.43;;;3.40;;
5245;SDS011;54412;51.206;6.888;2023-04-15T02:22:55;6.33;;;3.17;;
5245;SDS011;54412;51.206;6.888;2023-04-15T02:25:21;4.10;;;2.77;;
5245;SDS011;54412;51.206;6.888;2023-04-15T02:27:46;2.87;;;2.63;;
5245;SDS011;54412;51.206;6.888;2023-04-15T02:30:12;2.60;;;2.40;;
5245;SDS011;54412;51.206;6.888;2023-04-15T02:32:38;8.53;;;3.67;;
5245;SDS011;54412;51.206;6.888;2023-04-15T02:35:05;4.83;;;3.03;;
5245;SDS011;54412;51.206;6.888;2023-04-15T02:37:34;4.40;;;3.03;;
5245;SDS011;54412;51.206;6.888;2023-04-15T02:40:06;5.17;;;3.10;;
5245;SDS011;54412;51.206;6.888;2023-04-15T02:42:35;3.67;;;3.20;;
5245;SDS011;54412;51.206;6.888;2023-04-15T02:45:02;5.77;;;3.10;;
5245;SDS011;54412;51.206;6.888;2023-04-15T02:47:29;3.33;;;2.60;;
5245;SDS011;54412;51.206;6.888;2023-04-15T02:49:55;4.00;;;2.87;;
5245;SDS011;54412;51.206;6.888;2023-04-15T02:52:22;3.40;;;2.43;;
5245;SDS011;54412;51.206;6.888;2023-04-15T02:54:48;4.23;;;2.70;;
5245;SDS011;54412;51.206;6.888;2023-04-15T02:57:14;6.13;;;3.70;;
5245;SDS011;54412;51.206;6.888;2023-04-15T02:59:40;3.53;;;2.60;;
5245;SDS011;54412;51.206;6.888;2023-04-15T03:02:05;5.43;;;3.40;;
5245;SDS011;54412;51.206;6.888;2023-04-15T03:04:32;8.87;;;3.07;;
5245;SDS011;54412;51.206;6.888;2023-04-15T03:06:58;9.57;;;4.70;;
5245;SDS011;54412;51.206;6.888;2023-04-15T03:09:25;4.90;;;3.80;;
5245;SDS011;54412;51.206;6.888;2023-04-15T03:11:51;8.27;;;3.77;;
5245;SDS011;54412;51.206;6.888;2023-04-15T03:14:18;8.93;;;3.73;;
5245;SDS011;54412;51.206;6.888;2023-04-15T03:16:44;5.40;;;4.20;;
5245;SDS011;54412;51.206;6.888;2023-04-15T03:19:10;5.53;;;4.17;;
5245;SDS011;54412;51.206;6.888;2023-04-15T03:21:36;7.30;;;3.57;;
5245;SDS011;54412;51.206;6.888;2023-04-15T03:24:01;7.57;;;3.90;;
5245;SDS011;54412;51.206;6.888;2023-04-15T03:26:27;6.40;;;3.87;;
5245;SDS011;54412;51.206;6.888;2023-04-15T03:28:55;5.27;;;3.60;;
5245;SDS011;54412;51.206;6.888;2023-04-15T03:31:21;7.60;;;3.67;;
5245;SDS011;54412;51.206;6.888;2023-04-15T03:33:47;3.87;;;3.40;;
5245;SDS011;54412;51.206;6.888;2023-04-15T03:36:13;5.67;;;3.40;;
5245;SDS011;54412;51.206;6.888;2023-04-15T03:38:39;6.70;;;3.47;;
5245;SDS011;54412;51.206;6.888;2023-04-15T03:41:05;8.97;;;5.07;;
5245;SDS011;54412;51.206;6.888;2023-04-15T03:43:31;6.10;;;3.87;;
5245;SDS011;54412;51.206;6.888;2023-04-15T03:45:57;5.17;;;4.10;;
5245;SDS011;54412;51.206;6.888;2023-04-15T03:48:22;5.53;;;3.50;;
5245;SDS011;54412;51.206;6.888;2023-04-15T03:50:48;15.97;;;4.03;;
5245;SDS011;54412;51.206;6.888;2023-04-15T03:53:14;4.60;;;3.67;;
5245;SDS011;54412;51.206;6.888;2023-04-15T03:55:40;4.93;;;3.43;;
5245;SDS011;54412;51.206;6.888;2023-04-15T03:58:05;7.03;;;3.77;;
5245;SDS011;54412;51.206;6.888;2023-04-15T04:00:31;5.57;;;3.50;;
5245;SDS011;54412;51.206;6.888;2023-04-15T04:02:57;6.37;;;4.00;;
5245;SDS011;54412;51.206;6.888;2023-04-15T04:05:23;5.63;;;3.83;;
5245;SDS011;54412;51.206;6.888;2023-04-15T04:07:48;3.90;;;3.50;;
5245;SDS011;54412;51.206;6.888;2023-04-15T04:10:14;6.60;;;3.60;;
5245;SDS011;54412;51.206;6.888;2023-04-15T04:12:40;5.87;;;3.80;;
5245;SDS011;54412;51.206;6.888;2023-04-15T04:15:06;4.90;;;4.30;;
5245;SDS011;54412;51.206;6.888;2023-04-15T04:17:32;7.57;;;4.60;;
5245;SDS011;54412;51.206;6.888;2023-04-15T04:19:58;4.00;;;3.47;;
5245;SDS011;54412;51.206;6.888;2023-04-15T04:22:23;7.53;;;4.00;;
5245;SDS011;54412;51.206;6.888;2023-04-15T04:24:49;6.53;;;4.60;;
5245;SDS011;54412;51.206;6.888;2023-04-15T04:27:15;7.33;;;4.63;;
5245;SDS011;54412;51.206;6.888;2023-04-15T04:29:41;4.77;;;4.33;;
5245;SDS011;54412;51.206;6.888;2023-04-15T04:32:07;9.20;;;5.60;;
5245;SDS011;54412;51.206;6.888;2023-04-15T04:34:32;6.97;;;5.80;;
5245;SDS011;54412;51.206;6.888;2023-04-15T04:36:58;7.20;;;6.00;;
5245;SDS011;54412;51.206;6.888;2023-04-15T04:39:24;8.23;;;5.20;;
5245;SDS011;54412;51.206;6.888;2023-04-15T04:41:50;11.33;;;6.37;;
5245;SDS011;54412;51.206;6.888;2023-04-15T04:44:18;9.43;;;5.20;;
5245;SDS011;54412;51.206;6.888;2023-04-15T04:46:44;8.40;;;5.70;;
5245;SDS011;54412;51.206;6.888;2023-04-15T04:49:10;11.23;;;5.90;;
5245;SDS011;54412;51.206;6.888;2023-04-15T04:51:35;9.87;;;5.80;;
5245;SDS011;54412;51.206;6.888;2023-04-15T04:54:01;9.97;;;7.00;;
5245;SDS011;54412;51.206;6.888;2023-04-15T04:56:28;9.00;;;6.53;;
5245;SDS011;54412;51.206;6.888;2023-04-15T04:58:53;10.10;;;6.97;;
5245;SDS011;54412;51.206;6.888;2023-04-15T05:01:19;9.90;;;7.30;;
5245;SDS011;54412;51.206;6.888;2023-04-15T05:03:45;7.77;;;6.97;;
5245;SDS011;54412;51.206;6.888;2023-04-15T05:06:11;10.70;;;7.17;;
5245;SDS011;54412;51.206;6.888;2023-04-15T05:08:36;11.93;;;7.40;;
5245;SDS011;54412;51.206;6.888;2023-04-15T05:11:02;15.43;;;7.30;;
5245;SDS011;54412;51.206;6.888;2023-04-15T05:13:28;12.03;;;7.70;;
5245;SDS011;54412;51.206;6.888;2023-04-15T05:15:54;11.53;;;7.40;;
5245;SDS011;54412;51.206;6.888;2023-04-15T05:18:20;10.27;;;7.17;;
5245;SDS011;54412;51.206;6.888;2023-04-15T05:20:46;15.07;;;8.23;;
5245;SDS011;54412;51.206;6.888;2023-04-15T05:23:14;10.07;;;6.87;;
5245;SDS011;54412;51.206;6.888;2023-04-15T05:25:40;11.00;;;6.27;;
5245;SDS011;54412;51.206;6.888;2023-04-15T05:28:06;10.40;;;6.70;;
5245;SDS011;54412;51.206;6.888;2023-04-15T05:30:31;10.40;;;6.67;;
5245;SDS011;54412;51.206;6.888;2023-04-15T05:32:57;10.40;;;6.37;;
5245;SDS011;54412;51.206;6.888;2023-04-15T05:35:23;7.67;;;6.63;;
5245;SDS011;54412;51.206;6.888;2023-04-15T05:37:49;12.00;;;6.30;;
5245;SDS011;54412;51.206;6.888;2023-04-15T05:40:15;9.77;;;6.53;;
5245;SDS011;54412;51.206;6.888;2023-04-15T05:42:41;11.83;;;7.27;;
5245;SDS011;54412;51.206;6.888;2023-04-15T05:45:07;14.50;;;7.70;;
5245;SDS011;54412;51.206;6.888;2023-04-15T05:47:34;8.87;;;7.63;;
5245;SDS011;54412;51.206;6.888;2023-04-15T05:50:01;8.80;;;7.90;;
5245;SDS011;54412;51.206;6.888;2023-04-15T05:52:27;10.00;;;7.77;;
5245;SDS011;54412;51.206;6.888;2023-04-15T05:54:53;9.37;;;8.40;;
5245;SDS011;54412;51.206;6.888;2023-04-15T05:57:19;9.00;;;7.23;;
5245;SDS011;54412;51.206;6.888;2023-04-15T05:59:45;10.20;;;8.00;;
5245;SDS011;54412;51.206;6.888;2023-04-15T06:02:10;12.10;;;8.00;;
5245;SDS011;54412;51.206;6.888;2023-04-15T06:04:37;11.10;;;7.77;;
5245;SDS011;54412;51.206;6.888;2023-04-15T06:07:03;13.53;;;8.60;;
5245;SDS011;54412;51.206;6.888;2023-04-15T06:09:29;13.03;;;8.63;;
5245;SDS011;54412;51.206;6.888;2023-04-15T06:11:54;12.83;;;8.40;;
5245;SDS011;54412;51.206;6.888;2023-04-15T06:14:21;13.30;;;9.00;;
5245;SDS011;54412;51.206;6.888;2023-04-15T06:16:47;9.53;;;8.53;;
5245;SDS011;54412;51.206;6.888;2023-04-15T06:19:13;18.30;;;10.67;;
5245;SDS011;54412;51.206;6.888;2023-04-15T06:21:39;10.90;;;9.17;;
5245;SDS011;54412;51.206;6.888;2023-04-15T06:24:05;11.93;;;9.90;;
5245;SDS011;54412;51.206;6.888;2023-04-15T06:26:31;10.63;;;9.20;;
5245;SDS011;54412;51.206;6.888;2023-04-15T06:28:57;9.93;;;8.90;;
5245;SDS011;54412;51.206;6.888;2023-04-15T06:31:23;11.77;;;9.20;;
5245;SDS011;54412;51.206;6.888;2023-04-15T06:33:48;9.20;;;8.17;;
5245;SDS011;54412;51.206;6.888;2023-04-15T06:36:14;9.73;;;8.60;;
5245;SDS011;54412;51.206;6.888;2023-04-15T06:38:40;10.87;;;8.70;;
5245;SDS011;54412;51.206;6.888;2023-04-15T06:41:06;9.27;;;8.23;;
5245;SDS011;54412;51.206;6.888;2023-04-15T06:43:32;9.33;;;8.43;;
5245;SDS011;54412;51.206;6.888;2023-04-15T06:45:57;9.30;;;7.93;;
5245;SDS011;54412;51.206;6.888;2023-04-15T06:48:23;8.67;;;7.00;;
5245;SDS011;54412;51.206;6.888;2023-04-15T06:50:49;9.53;;;8.10;;
5245;SDS011;54412;51.206;6.888;2023-04-15T06:53:14;8.33;;;6.80;;
5245;SDS011;54412;51.206;6.888;2023-04-15T06:55:40;8.00;;;7.20;;
5245;SDS011;54412;51.206;6.888;2023-04-15T06:58:06;8.27;;;7.47;;
5245;SDS011;54412;51.206;6.888;2023-04-15T07:00:32;8.60;;;6.63;;
5245;SDS011;54412;51.206;6.888;2023-04-15T07:03:01;6.10;;;5.60;;
5245;SDS011;54412;51.206;6.888;2023-04-15T07:05:28;6.50;;;5.70;;
5245;SDS011;54412;51.206;6.888;2023-04-15T07:07:54;6.53;;;5.30;;
5245;SDS011;54412;51.206;6.888;2023-04-15T07:10:21;10.30;;;5.47;;
5245;SDS011;54412;51.206;6.888;2023-04-15T07:12:47;7.93;;;7.10;;
5245;SDS011;54412;51.206;6.888;2023-04-15T07:15:13;7.07;;;6.43;;
5245;SDS011;54412;51.206;6.888;2023-04-15T07:17:40;5.70;;;5.13;;
5245;SDS011;54412;51.206;6.888;2023-04-15T07:20:07;6.40;;;5.13;;
5245;SDS011;54412;51.206;6.888;2023-04-15T07:22:33;12.37;;;5.87;;
5245;SDS011;54412;51.206;6.888;2023-04-15T07:24:59;11.00;;;4.67;;
5245;SDS011;54412;51.206;6.888;2023-04-15T07:27:25;4.20;;;3.90;;
5245;SDS011;54412;51.206;6.888;2023-04-15T07:29:51;4.77;;;4.27;;
5245;SDS011;54412;51.206;6.888;2023-04-15T07:32:17;6.13;;;5.60;;
5245;SDS011;54412;51.206;6.888;2023-04-15T07:34:43;5.47;;;5.07;;
5245;SDS011;54412;51.206;6.888;2023-04-15T07:37:09;5.13;;;4.67;;
5245;SDS011;54412;51.206;6.888;2023-04-15T07:39:35;6.60;;;5.13;;
5245;SDS011;54412;51.206;6.888;2023-04-15T07:42:01;6.40;;;5.70;;
5245;SDS011;54412;51.206;6.888;2023-04-15T07:44:28;7.13;;;6.43;;
5245;SDS011;54412;51.206;6.888;2023-04-15T07:46:54;5.97;;;5.47;;
5245;SDS011;54412;51.206;6.888;2023-04-15T07:49:23;5.47;;;4.97;;
5245;SDS011;54412;51.206;6.888;2023-04-15T07:51:48;21.20;;;5.63;;
5245;SDS011;54412;51.206;6.888;2023-04-15T07:54:15;6.60;;;5.77;;
5245;SDS011;54412;51.206;6.888;2023-04-15T07:56:40;6.03;;;4.80;;
5245;SDS011;54412;51.206;6.888;2023-04-15T07:59:06;5.53;;;4.93;;
5245;SDS011;54412;51.206;6.888;2023-04-15T08:01:33;6.30;;;3.43;;
5245;SDS011;54412;51.206;6.888;2023-04-15T08:03:59;4.43;;;4.00;;
5245;SDS011;54412;51.206;6.888;2023-04-15T08:06:25;4.90;;;3.97;;
5245;SDS011;54412;51.206;6.888;2023-04-15T08:08:51;3.83;;;3.47;;
5245;SDS011;54412;51.206;6.888;2023-04-15T08:11:18;3.77;;;3.40;;
5245;SDS011;54412;51.206;6.888;2023-04-15T08:13:45;3.80;;;3.50;;
5245;SDS011;54412;51.206;6.888;2023-04-15T08:16:18;7.23;;;3.70;;
5245;SDS011;54412;51.206;6.888;2023-04-15T08:18:46;8.93;;;4.60;;
5245;SDS011;54412;51.206;6.888;2023-04-15T08:21:14;3.97;;;3.37;;
5245;SDS011;54412;51.206;6.888;2023-04-15T08:23:42;4.80;;;3.00;;
5245;SDS011;54412;51.206;6.888;2023-04-15T08:26:09;5.17;;;3.63;;
5245;SDS011;54412;51.206;6.888;2023-04-15T08:28:36;3.40;;;3.20;;
5245;SDS011;54412;51.206;6.888;2023-04-15T08:31:05;4.70;;;3.70;;
5245;SDS011;54412;51.206;6.888;2023-04-15T08:33:31;5.67;;;4.33;;
5245;SDS011;54412;51.206;6.888;2023-04-15T08:35:57;3.80;;;3.50;;
5245;SDS011;54412;51.206;6.888;2023-04-15T08:38:23;4.60;;;3.17;;
5245;SDS011;54412;51.206;6.888;2023-04-15T08:40:48;4.63;;;4.00;;
5245;SDS011;54412;51.206;6.888;2023-04-15T08:43:17;6.33;;;4.30;;
5245;SDS011;54412;51.206;6.888;2023-04-15T08:45:50;5.43;;;4.93;;
5245;SDS011;54412;51.206;6.888;2023-04-15T08:48:17;4.97;;;4.47;;
5245;SDS011;54412;51.206;6.888;2023-04-15T08:50:44;5.03;;;4.63;;
5245;SDS011;54412;51.206;6.888;2023-04-15T08:53:11;4.80;;;3.83;;
5245;SDS011;54412;51.206;6.888;2023-04-15T08:55:42;4.73;;;4.10;;
5245;SDS011;54412;51.206;6.888;2023-04-15T08:58:10;5.07;;;4.60;;
5245;SDS011;54412;51.206;6.888;2023-04-15T09:00:40;6.03;;;5.43;;
5245;SDS011;54412;51.206;6.888;2023-04-15T09:03:07;6.00;;;5.20;;
5245;SDS011;54412;51.206;6.888;2023-04-15T09:05:36;5.63;;;5.17;;
5245;SDS011;54412;51.206;6.888;2023-04-15T09:08:02;5.33;;;4.83;;
5245;SDS011;54412;51.206;6.888;2023-04-15T09:10:30;6.20;;;5.60;;
5245;SDS011;54412;51.206;6.888;2023-04-15T09:12:57;4.93;;;4.43;;
5245;SDS011;54412;51.206;6.888;2023-04-15T09:15:24;5.73;;;5.23;;
5245;SDS011;54412;51.206;6.888;2023-04-15T09:17:51;5.43;;;4.57;;
5245;SDS011;54412;51.206;6.888;2023-04-15T09:20:17;6.73;;;6.00;;
5245;SDS011;54412;51.206;6.888;2023-04-15T09:22:44;6.67;;;4.60;;
5245;SDS011;54412;51.206;6.888;2023-04-15T09:27:51;4.90;;;4.13;;
5245;SDS011;54412;51.206;6.888;2023-04-15T09:30:20;5.20;;;4.70;;
5245;SDS011;54412;51.206;6.888;2023-04-15T09:32:50;5.10;;;4.60;;
5245;SDS011;54412;51.206;6.888;2023-04-15T09:35:21;4.60;;;4.23;;
5245;SDS011;54412;51.206;6.888;2023-04-15T09:37:49;5.53;;;5.03;;
5245;SDS011;54412;51.206;6.888;2023-04-15T09:40:34;4.33;;;3.93;;
5245;SDS011;54412;51.206;6.888;2023-04-15T09:43:03;5.30;;;3.90;;
5245;SDS011;54412;51.206;6.888;2023-04-15T09:45:31;4.13;;;3.73;;
5245;SDS011;54412;51.206;6.888;2023-04-15T09:47:58;5.47;;;3.57;;
5245;SDS011;54412;51.206;6.888;2023-04-15T09:50:41;3.57;;;3.27;;
5245;SDS011;54412;51.206;6.888;2023-04-15T09:53:08;4.10;;;3.20;;
5245;SDS011;54412;51.206;6.888;2023-04-15T09:55:36;4.47;;;3.27;;
5245;SDS011;54412;51.206;6.888;2023-04-15T09:58:07;4.93;;;4.07;;
5245;SDS011;54412;51.206;6.888;2023-04-15T10:00:41;5.43;;;4.03;;
5245;SDS011;54412;51.206;6.888;2023-04-15T10:03:07;4.57;;;3.87;;
5245;SDS011;54412;51.206;6.888;2023-04-15T10:05:34;9.33;;;4.53;;
5245;SDS011;54412;51.206;6.888;2023-04-15T10:08:02;6.20;;;4.03;;
5245;SDS011;54412;51.206;6.888;2023-04-15T10:10:28;6.33;;;4.73;;
5245;SDS011;54412;51.206;6.888;2023-04-15T10:12:55;3.73;;;3.37;;
5245;SDS011;54412;51.206;6.888;2023-04-15T10:15:21;4.27;;;3.97;;
5245;SDS011;54412;51.206;6.888;2023-04-15T10:17:49;4.70;;;3.50;;
5245;SDS011;54412;51.206;6.888;2023-04-15T10:20:20;3.90;;;3.00;;
5245;SDS011;54412;51.206;6.888;2023-04-15T10:22:47;5.50;;;3.70;;
5245;SDS011;54412;51.206;6.888;2023-04-15T10:25:15;4.17;;;3.83;;
5245;SDS011;54412;51.206;6.888;2023-04-15T10:27:42;4.53;;;4.23;;
5245;SDS011;54412;51.206;6.888;2023-04-15T10:30:08;5.27;;;4.27;;
5245;SDS011;54412;51.206;6.888;2023-04-15T10:32:35;4.90;;;4.53;;
5245;SDS011;54412;51.206;6.888;2023-04-15T10:35:02;4.23;;;3.93;;
5245;SDS011;54412;51.206;6.888;2023-04-15T10:37:34;4.40;;;4.07;;
5245;SDS011;54412;51.206;6.888;2023-04-15T10:42:59;4.67;;;3.93;;
5245;SDS011;54412;51.206;6.888;2023-04-15T10:45:26;9.07;;;5.37;;
5245;SDS011;54412;51.206;6.888;2023-04-15T10:48:01;4.33;;;3.80;;
5245;SDS011;54412;51.206;6.888;2023-04-15T10:50:31;3.53;;;2.93;;
5245;SDS011;54412;51.206;6.888;2023-04-15T10:52:57;2.90;;;2.80;;
5245;SDS011;54412;51.206;6.888;2023-04-15T10:55:26;3.03;;;2.83;;
5245;SDS011;54412;51.206;6.888;2023-04-15T10:57:58;4.33;;;3.33;;
5245;SDS011;54412;51.206;6.888;2023-04-15T11:00:27;5.33;;;4.37;;
5245;SDS011;54412;51.206;6.888;2023-04-15T11:02:57;4.10;;;3.70;;
5245;SDS011;54412;51.206;6.888;2023-04-15T11:05:50;3.80;;;3.37;;
5245;SDS011;54412;51.206;6.888;2023-04-15T11:08:16;5.03;;;4.50;;
5245;SDS011;54412;51.206;6.888;2023-04-15T11:18:12;5.00;;;4.60;;
5245;SDS011;54412;51.206;6.888;2023-04-15T11:20:51;4.53;;;4.13;;
5245;SDS011;54412;51.206;6.888;2023-04-15T11:23:41;4.87;;;4.57;;
5245;SDS011;54412;51.206;6.888;2023-04-15T11:26:10;5.17;;;4.87;;
5245;SDS011;54412;51.206;6.888;2023-04-15T11:28:37;4.77;;;4.47;;
5245;SDS011;54412;51.206;6.888;2023-04-15T11:31:12;4.67;;;4.37;;
5245;SDS011;54412;51.206;6.888;2023-04-15T11:36:26;4.50;;;4.20;;
5245;SDS011;54412;51.206;6.888;2023-04-15T11:38:54;4.10;;;3.80;;
5245;SDS011;54412;51.206;6.888;2023-04-15T11:41:22;3.93;;;3.73;;
5245;SDS011;54412;51.206;6.888;2023-04-15T11:43:49;3.30;;;3.07;;
5245;SDS011;54412;51.206;6.888;2023-04-15T11:46:15;3.20;;;3.00;;
5245;SDS011;54412;51.206;6.888;2023-04-15T11:48:42;3.40;;;3.10;;
5245;SDS011;54412;51.206;6.888;2023-04-15T11:51:10;3.00;;;2.80;;
5245;SDS011;54412;51.206;6.888;2023-04-15T11:53:42;3.13;;;2.90;;
5245;SDS011;54412;51.206;6.888;2023-04-15T11:56:10;3.00;;;2.80;;
5245;SDS011;54412;51.206;6.888;2023-04-15T11:58:56;3.47;;;3.23;;
5245;SDS011;54412;51.206;6.888;2023-04-15T12:04:18;4.20;;;3.37;;
5245;SDS011;54412;51.206;6.888;2023-04-15T12:06:46;3.67;;;3.43;;
5245;SDS011;54412;51.206;6.888;2023-04-15T12:09:12;5.83;;;3.70;;
5245;SDS011;54412;51.206;6.888;2023-04-15T12:11:47;3.30;;;3.07;;
5245;SDS011;54412;51.206;6.888;2023-04-15T12:16:56;3.23;;;3.03;;
5245;SDS011;54412;51.206;6.888;2023-04-15T12:21:56;3.40;;;3.20;;
5245;SDS011;54412;51.206;6.888;2023-04-15T12:24:25;4.20;;;3.00;;
5245;SDS011;54412;51.206;6.888;2023-04-15T12:26:54;3.83;;;3.00;;
5245;SDS011;54412;51.206;6.888;2023-04-15T12:29:25;3.00;;;2.80;;
5245;SDS011;54412;51.206;6.888;2023-04-15T12:32:09;3.20;;;2.90;;
5245;SDS011;54412;51.206;6.888;2023-04-15T12:34:42;4.40;;;4.00;;
5245;SDS011;54412;51.206;6.888;2023-04-15T12:37:14;3.90;;;3.57;;
5245;SDS011;54412;51.206;6.888;2023-04-15T12:39:41;3.80;;;2.97;;
5245;SDS011;54412;51.206;6.888;2023-04-15T12:42:09;3.23;;;2.87;;
5245;SDS011;54412;51.206;6.888;2023-04-15T12:44:36;3.13;;;2.93;;
5245;SDS011;54412;51.206;6.888;2023-04-15T12:47:03;4.30;;;2.97;;
5245;SDS011;54412;51.206;6.888;2023-04-15T12:49:30;3.10;;;2.90;;
5245;SDS011;54412;51.206;6.888;2023-04-15T12:51:57;2.83;;;2.63;;
5245;SDS011;54412;51.206;6.888;2023-04-15T12:54:25;2.40;;;2.30;;
5245;SDS011;54412;51.206;6.888;2023-04-15T12:56:52;3.57;;;3.27;;
5245;SDS011;54412;51.206;6.888;2023-04-15T12:59:19;3.10;;;2.90;;
5245;SDS011;54412;51.206;6.888;2023-04-15T13:01:45;3.30;;;3.00;;
5245;SDS011;54412;51.206;6.888;2023-04-15T13:04:12;3.47;;;3.27;;
5245;SDS011;54412;51.206;6.888;2023-04-15T13:06:39;3.60;;;3.40;;
5245;SDS011;54412;51.206;6.888;2023-04-15T13:09:05;3.80;;;3.10;;
5245;SDS011;54412;51.206;6.888;2023-04-15T13:11:31;3.53;;;3.27;;
5245;SDS011;54412;51.206;6.888;2023-04-15T13:13:59;3.73;;;3.43;;
5245;SDS011;54412;51.206;6.888;2023-04-15T13:16:26;2.70;;;2.50;;
5245;SDS011;54412;51.206;6.888;2023-04-15T13:18:52;2.93;;;2.73;;
5245;SDS011;54412;51.206;6.888;2023-04-15T13:21:18;3.30;;;3.10;;
5245;SDS011;54412;51.206;6.888;2023-04-15T13:23:44;2.53;;;2.40;;
5245;SDS011;54412;51.206;6.888;2023-04-15T13:26:10;2.97;;;2.70;;
5245;SDS011;54412;51.206;6.888;2023-04-15T13:28:36;2.40;;;2.30;;
5245;SDS011;54412;51.206;6.888;2023-04-15T13:31:02;2.57;;;2.47;;
5245;SDS011;54412;51.206;6.888;2023-04-15T13:33:29;3.00;;;2.80;;
5245;SDS011;54412;51.206;6.888;2023-04-15T13:35:55;3.60;;;3.07;;
5245;SDS011;54412;51.206;6.888;2023-04-15T13:38:21;3.10;;;2.90;;
5245;SDS011;54412;51.206;6.888;2023-04-15T13:40:49;2.60;;;2.40;;
5245;SDS011;54412;51.206;6.888;2023-04-15T13:43:15;2.80;;;2.10;;
5245;SDS011;54412;51.206;6.888;2023-04-15T13:45:41;2.23;;;2.13;;
5245;SDS011;54412;51.206;6.888;2023-04-15T13:48:07;14.50;;;3.13;;
5245;SDS011;54412;51.206;6.888;2023-04-15T13:50:33;2.53;;;2.40;;
5245;SDS011;54412;51.206;6.888;2023-04-15T13:52:59;3.90;;;3.60;;
5245;SDS011;54412;51.206;6.888;2023-04-15T13:55:25;2.20;;;2.10;;
5245;SDS011;54412;51.206;6.888;2023-04-15T13:57:51;3.30;;;2.70;;
5245;SDS011;54412;51.206;6.888;2023-04-15T14:00:16;2.63;;;2.43;;
5245;SDS011;54412;51.206;6.888;2023-04-15T14:02:42;3.80;;;2.63;;
5245;SDS011;54412;51.206;6.888;2023-04-15T14:05:09;3.00;;;2.80;;
5245;SDS011;54412;51.206;6.888;2023-04-15T14:07:35;4.30;;;2.80;;
5245;SDS011;54412;51.206;6.888;2023-04-15T14:10:01;2.80;;;2.60;;
5245;SDS011;54412;51.206;6.888;2023-04-15T14:12:27;2.57;;;2.47;;
5245;SDS011;54412;51.206;6.888;2023-04-15T14:14:52;3.00;;;2.80;;
5245;SDS011;54412;51.206;6.888;2023-04-15T14:17:18;2.77;;;2.47;;
5245;SDS011;54412;51.206;6.888;2023-04-15T14:19:44;2.30;;;2.20;;
5245;SDS011;54412;51.206;6.888;2023-04-15T14:22:10;3.10;;;2.80;;
5245;SDS011;54412;51.206;6.888;2023-04-15T14:24:35;4.23;;;2.80;;
5245;SDS011;54412;51.206;6.888;2023-04-15T14:27:01;3.10;;;2.90;;
5245;SDS011;54412;51.206;6.888;2023-04-15T14:29:27;5.70;;;3.07;;
5245;SDS011;54412;51.206;6.888;2023-04-15T14:31:53;4.23;;;2.80;;
5245;SDS011;54412;51.206;6.888;2023-04-15T14:34:21;3.40;;;2.03;;
5245;SDS011;54412;51.206;6.888;2023-04-15T14:36:49;2.50;;;2.30;;
5245;SDS011;54412;51.206;6.888;2023-04-15T14:39:17;2.47;;;2.37;;
5245;SDS011;54412;51.206;6.888;2023-04-15T14:41:43;2.80;;;2.60;;
5245;SDS011;54412;51.206;6.888;2023-04-15T14:44:09;2.90;;;2.70;;
5245;SDS011;54412;51.206;6.888;2023-04-15T14:46:36;4.70;;;2.83;;
5245;SDS011;54412;51.206;6.888;2023-04-15T14:49:03;5.17;;;3.43;;
5245;SDS011;54412;51.206;6.888;2023-04-15T14:51:29;3.07;;;2.63;;
5245;SDS011;54412;51.206;6.888;2023-04-15T14:53:58;3.03;;;2.83;;
5245;SDS011;54412;51.206;6.888;2023-04-15T14:56:24;3.77;;;3.37;;
5245;SDS011;54412;51.206;6.888;2023-04-15T14:58:51;7.30;;;3.50;;
5245;SDS011;54412;51.206;6.888;2023-04-15T15:01:18;5.33;;;2.80;;
5245;SDS011;54412;51.206;6.888;2023-04-15T15:03:45;2.40;;;2.20;;
5245;SDS011;54412;51.206;6.888;2023-04-15T15:06:11;2.97;;;2.60;;
5245;SDS011;54412;51.206;6.888;2023-04-15T15:08:37;3.53;;;2.63;;
5245;SDS011;54412;51.206;6.888;2023-04-15T15:11:03;2.83;;;2.63;;
5245;SDS011;54412;51.206;6.888;2023-04-15T15:13:28;3.30;;;3.00;;
5245;SDS011;54412;51.206;6.888;2023-04-15T15:15:55;4.43;;;2.63;;
5245;SDS011;54412;51.206;6.888;2023-04-15T15:18:21;2.77;;;2.57;;
5245;SDS011;54412;51.206;6.888;2023-04-15T15:20:49;3.93;;;2.37;;
5245;SDS011;54412;51.206;6.888;2023-04-15T15:23:15;2.60;;;2.40;;